< < Back
Terminal Aerodrome Forecast


Current Version              Previous Versions:   1  2  3  4  5  6  7  8  9  

Terminal Aerodrome Forecast

737
FTUS42 KJAX 022323
TAFGNV
TAF
KGNV 022323Z 0300/0324 23003KT P6SM SCT040 BKN250
     FM030800 25002KT 4SM BR SCT250
     FM031300 29005KT P6SM VCSH SCT040 BKN250
     FM031600 29007KT P6SM VCTS BKN040CB BKN250=



Latest METAR

694
SAUS70 KWBC 032000 RRH
MTRGNV
METAR KGNV 031953Z 32005KT 10SM CLR 33/22 A2993 RMK AO2 LTG DSNT S
SLP131 T03280222


USA.gov is the U.S. government's official web portal to all federal, state and local government web resources and services.